Time;durP1;ratioP1;P1;durP2;ratioP2;P2;SDS_P1;SDS_P2;PMS_P1;PMS_P2;Temp;Humidity;BMP_temperature;BMP_pressure;BME280_temperature;BME280_humidity;BME280_pressure;Samples;Min_cycle;Max_cycle;Signal;HPM_P1;HPM_P2
2023/11/14 00:00:51;;;;;;;;;;;;;;;11.07;83.67;97013.34;5111371;27;19955;-71
2023/11/14 00:03:40;;;;;;;;;;;;;;;11.17;83.74;97019.13;5096038;28;19920;-71
2023/11/14 00:06:28;;;;;;;;;;;;;;;11.24;83.25;97024.84;5090010;28;19956;-71
2023/11/14 00:09:18;;;;;;;;;;;;;;;11.22;83.18;97023.56;5092993;28;20031;-71
2023/11/14 00:12:06;;;;;;;;;;;;;;;11.23;81.90;97017.00;5095003;28;20309;-71
2023/11/14 00:14:54;;;;;;;;;;;;;;;11.27;81.59;97020.63;5098358;28;19985;-72
2023/11/14 00:17:42;;;;;;;;;;;;;;;11.26;80.57;97021.78;5102720;28;20021;-71
2023/11/14 00:20:30;;;;;;;;;;;;;;;11.25;80.09;97039.22;5110076;28;19920;-72
2023/11/14 00:23:19;;;;;;;;;;;;;;;11.27;79.00;97048.63;5055617;28;19928;-72
2023/11/14 00:26:09;;;;;;;;;;;;;;;11.33;79.08;97041.03;5053940;28;20371;-73
2023/11/14 00:28:58;;;;;;;;;;;;;;;11.37;78.27;97046.59;5061228;28;20032;-71
2023/11/14 00:31:47;;;;;;;;;;;;;;;11.31;76.75;97037.88;5051385;28;20066;-72
2023/11/14 00:34:37;;;;;;;;;;;;;;;11.32;76.52;97031.28;5090663;28;20435;-72
2023/11/14 00:37:25;;;;;;;;;;;;;;;11.28;75.98;97033.09;5065773;28;20027;-71
2023/11/14 00:40:13;;;;;;;;;;;;;;;11.25;75.79;97050.09;5066940;28;19920;-71
2023/11/14 00:43:05;;;;;;;;;;;;;;;11.32;75.92;97050.34;5062473;28;19921;-71
2023/11/14 00:45:53;;;;;;;;;;;;;;;11.30;75.87;97062.69;5068664;28;19921;-71
2023/11/14 00:48:42;;;;;;;;;;;;;;;11.39;76.01;97069.59;5069501;28;20067;-71
2023/11/14 00:51:30;;;;;;;;;;;;;;;11.32;75.09;97071.28;5071176;28;19920;-73
2023/11/14 00:54:18;;;;;;;;;;;;;;;11.32;73.87;97074.00;5066925;28;20015;-71
2023/11/14 00:57:06;;;;;;;;;;;;;;;11.30;73.31;97057.25;5065734;28;19921;-71
2023/11/14 00:59:56;;;;;;;;;;;;;;;11.23;73.36;97063.22;5063011;28;20381;-71
2023/11/14 01:02:45;;;;;;;;;;;;;;;11.19;72.90;97057.66;5072289;28;19920;-72
2023/11/14 01:05:33;;;;;;;;;;;;;;;11.14;72.92;97067.97;5065628;28;19938;-71
2023/11/14 01:08:21;;;;;;;;;;;;;;;11.15;71.94;97083.16;5061283;28;20370;-71
2023/11/14 01:11:09;;;;;;;;;;;;;;;11.14;72.15;97097.88;5057591;28;20374;-72
2023/11/14 01:13:58;;;;;;;;;;;;;;;11.13;70.62;97096.25;5064286;28;19927;-71
2023/11/14 01:16:48;;;;;;;;;;;;;;;11.05;71.21;97099.88;5063800;28;19920;-72
2023/11/14 01:19:38;;;;;;;;;;;;;;;11.01;71.35;97097.81;5075906;28;19920;-72
2023/11/14 01:22:26;;;;;;;;;;;;;;;11.02;71.32;97091.25;5097847;27;20366;-72
2023/11/14 01:25:15;;;;;;;;;;;;;;;11.01;70.76;97094.28;5085528;28;20381;-71
2023/11/14 01:28:03;;;;;;;;;;;;;;;11.04;71.31;97109.16;5082343;28;20389;-71
2023/11/14 01:30:51;;;;;;;;;;;;;;;11.04;71.28;97114.59;5061994;28;19921;-72
2023/11/14 01:33:41;;;;;;;;;;;;;;;11.00;71.33;97114.44;5076653;28;20415;-71
2023/11/14 01:36:29;;;;;;;;;;;;;;;11.07;71.14;97108.47;5075950;28;19994;-71
2023/11/14 01:39:17;;;;;;;;;;;;;;;11.03;71.27;97113.78;5084075;28;20277;-72
2023/11/14 01:42:05;;;;;;;;;;;;;;;11.01;71.59;97132.34;5082094;28;19943;-72
2023/11/14 01:44:53;;;;;;;;;;;;;;;11.01;71.07;97122.25;5064337;28;20113;-72
2023/11/14 01:47:45;;;;;;;;;;;;;;;11.00;71.52;97117.16;5076398;28;20374;-72
2023/11/14 01:50:37;;;;;;;;;;;;;;;10.96;71.93;97114.31;5086511;28;19951;-71
2023/11/14 01:53:25;;;;;;;;;;;;;;;10.98;72.01;97105.84;5097572;27;20152;-71
2023/11/14 01:56:12;;;;;;;;;;;;;;;10.96;71.96;97114.31;5078373;28;19920;-72
2023/11/14 01:59:00;;;;;;;;;;;;;;;10.97;72.04;97115.94;5081606;28;19925;-71
2023/11/14 02:01:48;;;;;;;;;;;;;;;10.88;72.47;97117.13;5087894;28;20366;-73
2023/11/14 02:04:37;;;;;;;;;;;;;;;10.86;72.49;97120.16;5094449;27;20051;-71
2023/11/14 02:07:27;;;;;;;;;;;;;;;10.86;72.81;97122.06;5078156;28;20010;-71
2023/11/14 02:10:16;;;;;;;;;;;;;;;10.77;72.99;97122.16;5066697;28;19920;-71
2023/11/14 02:13:04;;;;;;;;;;;;;;;10.74;72.48;97139.13;5079861;28;20363;-71
2023/11/14 02:15:52;;;;;;;;;;;;;;;10.71;72.24;97128.94;5082668;28;19920;-72
2023/11/14 02:18:40;;;;;;;;;;;;;;;10.70;72.26;97125.38;5086769;28;19920;-71
2023/11/14 02:21:28;;;;;;;;;;;;;;;10.49;72.25;97130.81;5066006;28;19927;-71
2023/11/14 02:24:18;;;;;;;;;;;;;;;10.62;71.72;97145.28;5070909;28;19939;-72
2023/11/14 02:27:07;;;;;;;;;;;;;;;10.57;71.97;97152.81;5084159;28;20007;-71
2023/11/14 02:29:56;;;;;;;;;;;;;;;10.58;71.63;97152.47;5086179;28;20401;-72
2023/11/14 02:32:45;;;;;;;;;;;;;;;10.60;71.49;97142.09;5086691;28;19919;-72
2023/11/14 02:35:34;;;;;;;;;;;;;;;10.56;71.96;97132.22;5086785;28;19928;-71
2023/11/14 02:38:22;;;;;;;;;;;;;;;10.63;71.68;97154.22;5065365;28;19983;-72
2023/11/14 02:41:11;;;;;;;;;;;;;;;10.56;71.27;97171.03;5067905;28;19927;-71
2023/11/14 02:44:00;;;;;;;;;;;;;;;10.47;71.62;97156.72;5082790;28;19924;-72
2023/11/14 02:46:48;;;;;;;;;;;;;;;10.48;71.99;97152.88;5084365;28;20359;-71
2023/11/14 02:49:56;;;;;;;;;;;;;;;10.50;71.99;97158.78;5065317;28;19921;-71
2023/11/14 02:52:47;;;;;;;;;;;;;;;10.51;71.79;97156.84;5086694;28;19920;-72
2023/11/14 02:55:35;;;;;;;;;;;;;;;10.49;71.76;97160.69;5072224;28;21700;-71
2023/11/14 02:58:23;;;;;;;;;;;;;;;10.53;72.08;97166.25;5097242;27;20361;-71
2023/11/14 03:01:13;;;;;;;;;;;;;;;10.53;72.06;97170.88;5088837;27;19980;-72
2023/11/14 03:04:01;;;;;;;;;;;;;;;10.58;71.82;97163.34;5084354;28;20167;-71
2023/11/14 03:06:49;;;;;;;;;;;;;;;10.41;72.17;97174.31;5068988;28;20396;-71
2023/11/14 03:09:37;;;;;;;;;;;;;;;10.46;72.64;97155.91;5075139;28;20051;-71
2023/11/14 03:12:25;;;;;;;;;;;;;;;10.47;72.66;97162.94;5065192;28;19982;-71
2023/11/14 03:15:13;;;;;;;;;;;;;;;10.41;73.26;97158.03;5073247;28;19925;-71
2023/11/14 03:18:03;;;;;;;;;;;;;;;10.36;73.67;97144.63;5092787;27;19927;-71
2023/11/14 03:20:51;;;;;;;;;;;;;;;10.43;73.41;97140.25;5077334;28;19924;-71
2023/11/14 03:23:39;;;;;;;;;;;;;;;10.43;73.04;97142.97;5080792;28;20029;-71
2023/11/14 03:26:30;;;;;;;;;;;;;;;10.45;73.23;97151.63;5077915;28;20007;-71
2023/11/14 03:29:18;;;;;;;;;;;;;;;10.46;73.13;97150.47;5082065;28;19955;-71
2023/11/14 03:32:07;;;;;;;;;;;;;;;10.50;73.34;97145.19;5060883;28;19990;-70
2023/11/14 03:34:56;;;;;;;;;;;;;;;10.36;73.52;97153.56;5069400;28;20019;-70
2023/11/14 03:37:45;;;;;;;;;;;;;;;10.18;73.73;97166.41;5082492;28;19920;-71
2023/11/14 03:40:33;;;;;;;;;;;;;;;10.36;73.26;97169.88;5083852;28;20312;-70
2023/11/14 03:43:21;;;;;;;;;;;;;;;10.27;72.96;97179.97;5059119;28;19920;-71
2023/11/14 03:46:09;;;;;;;;;;;;;;;10.28;73.28;97175.31;5074180;28;20405;-71
2023/11/14 03:48:58;;;;;;;;;;;;;;;10.38;72.86;97181.19;5066071;28;19932;-71
2023/11/14 03:51:47;;;;;;;;;;;;;;;10.29;72.75;97195.94;5079186;28;19935;-71
2023/11/14 03:54:35;;;;;;;;;;;;;;;10.27;72.79;97209.81;5062710;28;19927;-71
2023/11/14 03:57:23;;;;;;;;;;;;;;;10.27;72.33;97207.13;5079155;28;20282;-70
2023/11/14 04:00:12;;;;;;;;;;;;;;;10.27;71.92;97212.53;5064624;28;19920;-72
2023/11/14 04:03:01;;;;;;;;;;;;;;;10.23;71.47;97206.16;5081677;28;19927;-72
2023/11/14 04:05:50;;;;;;;;;;;;;;;10.24;71.74;97210.50;5060061;28;20039;-71
2023/11/14 04:08:39;;;;;;;;;;;;;;;10.19;71.49;97216.88;5073113;28;19932;-71
2023/11/14 04:11:28;;;;;;;;;;;;;;;10.24;71.11;97215.94;5086239;28;20007;-71
2023/11/14 04:14:16;;;;;;;;;;;;;;;10.25;71.21;97211.28;5068819;28;19942;-70
2023/11/14 04:17:04;;;;;;;;;;;;;;;10.22;70.60;97220.84;5081863;28;20380;-71
2023/11/14 04:19:52;;;;;;;;;;;;;;;10.21;70.74;97230.09;5072723;28;20376;-71
2023/11/14 04:22:40;;;;;;;;;;;;;;;10.26;70.96;97221.81;5084017;28;19920;-71
2023/11/14 04:25:30;;;;;;;;;;;;;;;10.26;70.11;97229.97;5085272;28;19924;-71
2023/11/14 04:28:18;;;;;;;;;;;;;;;10.31;69.98;97234.41;5077311;28;19920;-71
2023/11/14 04:31:06;;;;;;;;;;;;;;;10.26;69.58;97231.88;5107608;27;19994;-71
2023/11/14 04:33:54;;;;;;;;;;;;;;;10.36;68.87;97242.38;5088727;28;20270;-71
2023/11/14 04:36:42;;;;;;;;;;;;;;;10.32;68.18;97247.66;5075701;28;19927;-71
2023/11/14 04:39:31;;;;;;;;;;;;;;;10.38;68.14;97257.22;5099067;27;19977;-71
2023/11/14 04:42:21;;;;;;;;;;;;;;;10.35;68.30;97273.38;5101403;27;21788;-71
2023/11/14 04:45:09;;;;;;;;;;;;;;;10.26;68.30;97269.88;5100158;27;19919;-71
2023/11/14 04:47:57;;;;;;;;;;;;;;;10.28;68.20;97279.31;5102683;27;19932;-71
2023/11/14 04:50:46;;;;;;;;;;;;;;;10.16;68.22;97281.84;5103695;27;19924;-72
2023/11/14 04:53:34;;;;;;;;;;;;;;;10.19;68.46;97278.50;5101779;27;19920;-71
2023/11/14 04:56:22;;;;;;;;;;;;;;;10.03;68.53;97280.16;5105667;27;19932;-71
2023/11/14 04:59:11;;;;;;;;;;;;;;;10.15;67.87;97289.19;5102631;27;19930;-72
2023/11/14 05:01:59;;;;;;;;;;;;;;;10.13;67.34;97286.03;5104120;27;19920;-70
2023/11/14 05:04:47;;;;;;;;;;;;;;;9.97;66.63;97276.81;5100535;28;20399;-70
2023/11/14 05:07:35;;;;;;;;;;;;;;;10.21;67.22;97279.75;5118383;27;19927;-70
2023/11/14 05:10:23;;;;;;;;;;;;;;;10.26;66.68;97286.97;5098155;27;19927;-72
2023/11/14 05:13:11;;;;;;;;;;;;;;;10.37;66.98;97274.63;5098037;27;20931;-71
2023/11/14 05:16:00;;;;;;;;;;;;;;;10.37;66.00;97290.13;5098695;27;19923;-71
2023/11/14 05:18:57;;;;;;;;;;;;;;;10.39;65.93;97282.47;5098577;27;19927;-71
2023/11/14 05:21:45;;;;;;;;;;;;;;;10.48;66.09;97281.28;5101568;27;19920;-71
2023/11/14 05:24:33;;;;;;;;;;;;;;;10.49;65.27;97277.47;5086955;28;20396;-72
2023/11/14 05:27:21;;;;;;;;;;;;;;;10.54;66.42;97283.84;5088343;28;19934;-70
2023/11/14 05:30:12;;;;;;;;;;;;;;;10.69;65.08;97272.41;5080931;28;20049;-71
2023/11/14 05:33:04;;;;;;;;;;;;;;;10.63;65.65;97273.72;5087003;27;19920;-71
2023/11/14 05:35:53;;;;;;;;;;;;;;;10.66;65.23;97270.38;5084865;28;19936;-71
2023/11/14 05:38:41;;;;;;;;;;;;;;;10.70;65.05;97280.22;5086558;28;19939;-71
2023/11/14 05:41:30;;;;;;;;;;;;;;;10.77;65.01;97282.47;5066740;28;19924;-71
2023/11/14 05:44:18;;;;;;;;;;;;;;;10.70;65.22;97282.16;5088304;28;19979;-70
2023/11/14 05:47:07;;;;;;;;;;;;;;;10.68;64.85;97287.13;5075845;28;20052;-72
2023/11/14 05:49:57;;;;;;;;;;;;;;;10.70;65.03;97287.59;5077745;28;19927;-71
2023/11/14 05:52:45;;;;;;;;;;;;;;;10.73;66.18;97287.75;5081716;28;20243;-71
2023/11/14 05:55:34;;;;;;;;;;;;;;;10.62;65.99;97283.81;5080207;28;19921;-71
2023/11/14 05:58:23;;;;;;;;;;;;;;;10.51;66.04;97287.22;5085800;28;19920;-71
2023/11/14 06:01:11;;;;;;;;;;;;;;;10.63;66.41;97296.25;5080983;28;19932;-72
2023/11/14 06:03:59;;;;;;;;;;;;;;;10.62;66.23;97304.75;5083961;28;20014;-71
2023/11/14 06:06:49;;;;;;;;;;;;;;;10.72;66.00;97305.19;5085695;28;19920;-71
2023/11/14 06:09:37;;;;;;;;;;;;;;;10.66;66.59;97305.69;5075889;28;19921;-70
2023/11/14 06:12:25;;;;;;;;;;;;;;;10.74;66.55;97308.34;5079301;28;20076;-70
2023/11/14 06:15:13;;;;;;;;;;;;;;;10.70;66.89;97317.47;5102094;27;19920;-71
2023/11/14 06:18:01;;;;;;;;;;;;;;;10.69;66.77;97315.88;5086994;28;19923;-70
2023/11/14 06:20:52;;;;;;;;;;;;;;;10.61;67.26;97317.53;5076796;28;19921;-70
2023/11/14 06:23:42;;;;;;;;;;;;;;;10.77;67.36;97322.41;5076424;28;20026;-69
2023/11/14 06:26:30;;;;;;;;;;;;;;;10.79;67.25;97310.09;5081401;28;19985;-71
2023/11/14 06:29:18;;;;;;;;;;;;;;;10.85;67.84;97303.34;5076610;28;20006;-70
2023/11/14 06:32:06;;;;;;;;;;;;;;;10.86;67.87;97318.50;5076583;28;19982;-70
2023/11/14 06:34:54;;;;;;;;;;;;;;;10.96;67.86;97326.31;5087095;28;20136;-70
2023/11/14 06:37:44;;;;;;;;;;;;;;;10.84;67.54;97318.06;5088918;28;19927;-70
2023/11/14 06:40:33;;;;;;;;;;;;;;;10.97;67.33;97322.47;5062637;28;19920;-70
2023/11/14 06:43:21;;;;;;;;;;;;;;;10.96;67.56;97329.03;5078617;28;20518;-70
2023/11/14 06:46:09;;;;;;;;;;;;;;;10.98;67.34;97343.09;5083871;28;19959;-70
2023/11/14 06:48:58;;;;;;;;;;;;;;;11.09;67.24;97342.72;5079353;28;19964;-70
2023/11/14 06:51:47;;;;;;;;;;;;;;;11.09;67.27;97346.25;5079999;28;20294;-70
2023/11/14 06:54:35;;;;;;;;;;;;;;;11.09;67.56;97353.59;5080983;28;19921;-70
2023/11/14 06:57:25;;;;;;;;;;;;;;;11.14;67.63;97348.78;5079589;28;19928;-72
2023/11/14 07:00:15;;;;;;;;;;;;;;;11.01;68.07;97342.44;5080367;28;19932;-70
2023/11/14 07:03:03;;;;;;;;;;;;;;;11.16;67.67;97335.63;5066168;28;19939;-70
2023/11/14 07:05:51;;;;;;;;;;;;;;;11.01;68.88;97317.97;5082755;28;19926;-70
2023/11/14 07:08:40;;;;;;;;;;;;;;;11.03;68.47;97347.56;5075493;28;19928;-70
2023/11/14 07:11:28;;;;;;;;;;;;;;;11.09;68.84;97361.75;5084170;28;20066;-70
2023/11/14 07:14:21;;;;;;;;;;;;;;;10.92;68.83;97374.31;5080856;28;19920;-70
2023/11/14 07:17:09;;;;;;;;;;;;;;;10.97;69.20;97381.44;5080438;28;19927;-73
2023/11/14 07:19:57;;;;;;;;;;;;;;;10.81;69.74;97358.66;5082723;28;19927;-70
2023/11/14 07:22:45;;;;;;;;;;;;;;;10.97;69.81;97365.16;5084918;28;20281;-71
2023/11/14 07:25:38;;;;;;;;;;;;;;;10.85;69.70;97362.34;5078804;28;19942;-70
2023/11/14 07:28:29;;;;;;;;;;;;;;;10.90;69.80;97346.63;5083039;28;21506;-71
2023/11/14 07:31:19;;;;;;;;;;;;;;;10.88;70.03;97343.47;5078767;28;19920;-70
2023/11/14 07:34:07;;;;;;;;;;;;;;;11.05;69.51;97355.38;5081631;28;19966;-71
2023/11/14 07:36:55;;;;;;;;;;;;;;;10.91;69.52;97374.59;5087622;28;19920;-71
2023/11/14 07:39:43;;;;;;;;;;;;;;;11.01;69.65;97385.91;5078357;28;20033;-71
2023/11/14 07:42:31;;;;;;;;;;;;;;;11.11;69.67;97383.97;5076463;28;19927;-73
2023/11/14 07:45:20;;;;;;;;;;;;;;;10.97;69.56;97404.03;5077322;28;19927;-70
2023/11/14 07:48:10;;;;;;;;;;;;;;;11.08;69.77;97426.22;5079880;28;19920;-70
2023/11/14 07:50:58;;;;;;;;;;;;;;;11.07;69.80;97421.06;5083197;28;20269;-71
2023/11/14 07:53:47;;;;;;;;;;;;;;;11.02;69.43;97433.75;5085072;28;19997;-70
2023/11/14 07:56:35;;;;;;;;;;;;;;;10.99;69.63;97434.38;5087040;28;19978;-70
2023/11/14 07:59:24;;;;;;;;;;;;;;;11.05;69.43;97407.03;5074940;28;20358;-70
2023/11/14 08:02:11;;;;;;;;;;;;;;;11.15;69.31;97398.50;5078954;28;19967;-71
2023/11/14 08:05:01;;;;;;;;;;;;;;;11.18;69.14;97379.59;5079164;28;19935;-70
2023/11/14 08:07:49;;;;;;;;;;;;;;;11.19;69.27;97400.25;5066760;28;20297;-70
2023/11/14 08:10:37;;;;;;;;;;;;;;;11.28;69.32;97402.91;5085015;28;20389;-70
2023/11/14 08:13:25;;;;;;;;;;;;;;;11.32;68.67;97406.56;5083670;28;19939;-70
2023/11/14 08:16:13;;;;;;;;;;;;;;;11.36;68.58;97383.03;5083237;28;20015;-70
2023/11/14 08:19:02;;;;;;;;;;;;;;;11.34;68.62;97368.94;5096448;28;19924;-70
2023/11/14 08:21:52;;;;;;;;;;;;;;;11.32;68.32;97365.78;5078621;28;19935;-70
2023/11/14 08:24:40;;;;;;;;;;;;;;;11.28;68.17;97370.28;5077124;28;19947;-70
2023/11/14 08:27:31;;;;;;;;;;;;;;;11.30;68.38;97400.66;5093263;28;19932;-70
2023/11/14 08:30:19;;;;;;;;;;;;;;;11.37;68.40;97398.22;5075872;28;20273;-70
2023/11/14 08:33:07;;;;;;;;;;;;;;;11.42;68.34;97425.22;5083899;28;19927;-70
2023/11/14 08:35:57;;;;;;;;;;;;;;;11.33;68.88;97437.28;5076787;28;20418;-70
2023/11/14 08:38:47;;;;;;;;;;;;;;;11.45;67.79;97440.91;5068348;28;19927;-71
2023/11/14 08:41:35;;;;;;;;;;;;;;;11.43;67.93;97464.91;5074049;28;19921;-71
2023/11/14 08:44:23;;;;;;;;;;;;;;;11.40;68.12;97435.66;5074653;28;19993;-70
2023/11/14 08:47:11;;;;;;;;;;;;;;;11.54;67.67;97425.31;5074136;28;20577;-70
2023/11/14 08:49:59;;;;;;;;;;;;;;;11.62;67.78;97431.06;5081610;28;20289;-70
2023/11/14 08:52:48;;;;;;;;;;;;;;;11.59;67.33;97446.09;5077977;28;19920;-70
2023/11/14 08:55:37;;;;;;;;;;;;;;;11.57;67.13;97466.59;5087111;28;19924;-71
2023/11/14 08:58:25;;;;;;;;;;;;;;;11.51;67.85;97485.84;5080586;28;20387;-70
2023/11/14 09:01:14;;;;;;;;;;;;;;;11.63;67.29;97471.53;5089180;28;19923;-70
2023/11/14 09:04:02;;;;;;;;;;;;;;;11.47;68.10;97479.44;5079484;28;19927;-70
2023/11/14 09:06:51;;;;;;;;;;;;;;;11.51;67.65;97483.13;5090237;28;20010;-70
2023/11/14 09:09:39;;;;;;;;;;;;;;;11.51;67.60;97483.13;5089827;28;19932;-70
2023/11/14 09:12:30;;;;;;;;;;;;;;;11.55;67.26;97439.72;5080790;28;19978;-71
2023/11/14 09:15:18;;;;;;;;;;;;;;;11.41;67.93;97433.72;5104527;28;20307;-70
2023/11/14 09:18:07;;;;;;;;;;;;;;;11.56;66.94;97433.16;5098333;28;20018;-70
2023/11/14 09:20:55;;;;;;;;;;;;;;;11.63;67.14;97421.75;5093954;28;19923;-70
2023/11/14 09:23:43;;;;;;;;;;;;;;;11.66;67.04;97411.00;5083412;28;19925;-71
2023/11/14 09:26:31;;;;;;;;;;;;;;;11.62;66.85;97410.06;5082286;28;19920;-70
2023/11/14 09:29:21;;;;;;;;;;;;;;;11.82;66.79;97397.63;5081012;28;20327;-71
2023/11/14 09:32:10;;;;;;;;;;;;;;;11.92;66.68;97410.03;5090225;28;19928;-71
2023/11/14 09:34:59;;;;;;;;;;;;;;;11.85;66.48;97416.03;5077171;28;19932;-70
2023/11/14 09:37:49;;;;;;;;;;;;;;;11.81;65.88;97412.34;5080259;28;19927;-70
2023/11/14 09:40:37;;;;;;;;;;;;;;;11.99;66.13;97411.13;5080579;28;20109;-70
2023/11/14 09:43:25;;;;;;;;;;;;;;;12.10;65.69;97416.97;5079521;28;19926;-71
2023/11/14 09:46:17;;;;;;;;;;;;;;;12.10;65.58;97408.78;5083510;28;19950;-70
2023/11/14 09:49:07;;;;;;;;;;;;;;;12.02;65.74;97415.88;5079799;28;19927;-70
2023/11/14 09:51:55;;;;;;;;;;;;;;;11.99;65.91;97415.78;5090363;28;20495;-70
2023/11/14 09:54:43;;;;;;;;;;;;;;;12.11;65.22;97407.66;5089480;28;20389;-70
2023/11/14 09:57:31;;;;;;;;;;;;;;;12.01;65.27;97425.19;5089297;28;19920;-71
2023/11/14 10:00:23;;;;;;;;;;;;;;;12.13;66.01;97431.81;5084230;28;20021;-70
2023/11/14 10:03:12;;;;;;;;;;;;;;;12.15;65.35;97440.47;5087875;28;19923;-71
2023/11/14 10:06:02;;;;;;;;;;;;;;;12.07;65.08;97415.69;5087794;28;20382;-70
2023/11/14 10:08:50;;;;;;;;;;;;;;;12.01;65.02;97406.13;5080930;28;20270;-70
2023/11/14 10:11:45;;;;;;;;;;;;;;;12.14;65.63;97409.69;5077428;28;19920;-71
2023/11/14 10:14:54;;;;;;;;;;;;;;;11.97;65.88;97402.47;5084776;28;19933;-70
2023/11/14 10:17:43;;;;;;;;;;;;;;;11.98;65.15;97393.19;5078430;28;19920;-70
2023/11/14 10:20:39;;;;;;;;;;;;;;;12.10;64.42;97383.50;5085119;28;19950;-70
2023/11/14 10:23:32;;;;;;;;;;;;;;;12.16;63.73;97382.16;5081387;28;19920;-73
2023/11/14 10:26:27;;;;;;;;;;;;;;;12.17;64.00;97400.88;5082762;28;19946;-70
2023/11/14 10:29:17;;;;;;;;;;;;;;;12.21;64.59;97425.53;5079785;28;20015;-70
2023/11/14 10:32:10;;;;;;;;;;;;;;;12.24;63.53;97406.56;5079790;28;19931;-71
2023/11/14 10:34:58;;;;;;;;;;;;;;;12.29;64.45;97386.50;5080062;28;19920;-71
2023/11/14 10:37:47;;;;;;;;;;;;;;;12.36;63.25;97375.06;5075247;28;19947;-71
2023/11/14 10:40:44;;;;;;;;;;;;;;;12.40;62.82;97387.69;5081608;28;19936;-71
2023/11/14 10:43:32;;;;;;;;;;;;;;;12.37;63.32;97409.38;5084922;28;19924;-71
2023/11/14 10:46:20;;;;;;;;;;;;;;;12.38;63.63;97410.94;5069937;28;20269;-71
2023/11/14 10:49:09;;;;;;;;;;;;;;;12.11;63.70;97420.47;5070588;28;19920;-71
2023/11/14 10:51:57;;;;;;;;;;;;;;;12.06;64.11;97410.59;5079115;28;20060;-72
2023/11/14 10:54:47;;;;;;;;;;;;;;;11.92;64.77;97412.78;5083446;28;19932;-71
2023/11/14 10:57:35;;;;;;;;;;;;;;;11.97;63.89;97397.03;5090457;28;19920;-73
2023/11/14 11:00:27;;;;;;;;;;;;;;;11.96;64.73;97383.75;5081554;28;19920;-70
2023/11/14 11:03:15;;;;;;;;;;;;;;;11.99;64.19;97386.63;5089529;28;19924;-71
2023/11/14 11:06:03;;;;;;;;;;;;;;;12.00;64.60;97385.50;5077618;28;19920;-70
2023/11/14 11:08:51;;;;;;;;;;;;;;;11.94;65.31;97395.00;5085763;28;19921;-72
2023/11/14 11:11:43;;;;;;;;;;;;;;;11.95;64.55;97385.69;5087781;28;19920;-71
2023/11/14 11:14:31;;;;;;;;;;;;;;;11.96;63.86;97390.00;5088551;28;19995;-71
2023/11/14 11:17:34;;;;;;;;;;;;;;;12.02;64.42;97399.56;5088947;28;19943;-71
2023/11/14 11:20:26;;;;;;;;;;;;;;;12.11;63.50;97396.78;5076660;28;20355;-71
2023/11/14 11:23:16;;;;;;;;;;;;;;;12.06;63.53;97391.53;5078735;28;20270;-73
2023/11/14 11:26:13;;;;;;;;;;;;;;;12.14;63.45;97395.28;5081334;28;19960;-72
2023/11/14 11:29:04;;;;;;;;;;;;;;;12.20;62.84;97393.97;5083935;28;19920;-71
2023/11/14 11:32:07;;;;;;;;;;;;;;;12.06;63.70;97384.16;5082462;28;20351;-72
2023/11/14 11:35:13;;;;;;;;;;;;;;;11.86;63.73;97379.50;5077491;28;19959;-70
2023/11/14 11:38:09;;;;;;;;;;;;;;;12.05;63.97;97365.44;5097464;28;19920;-71
2023/11/14 11:41:08;;;;;;;;;;;;;;;12.05;62.99;97360.00;5076963;28;20281;-70
2023/11/14 11:44:06;;;;;;;;;;;;;;;12.13;63.42;97361.03;5082485;28;20360;-71
2023/11/14 11:46:54;;;;;;;;;;;;;;;12.15;62.87;97337.00;5079911;28;19932;-70
2023/11/14 11:49:42;;;;;;;;;;;;;;;12.14;63.55;97338.91;5070655;28;20007;-70
2023/11/14 11:52:30;;;;;;;;;;;;;;;12.05;63.03;97325.38;5096091;28;19928;-70
2023/11/14 11:55:19;;;;;;;;;;;;;;;12.03;63.06;97318.66;5077921;28;20009;-69
2023/11/14 11:58:08;;;;;;;;;;;;;;;11.97;64.05;97315.38;5083072;28;19920;-71
2023/11/14 12:01:08;;;;;;;;;;;;;;;12.00;64.04;97313.91;5091791;28;19924;-70
2023/11/14 12:03:57;;;;;;;;;;;;;;;11.91;63.08;97305.81;5091696;28;19924;-71
2023/11/14 12:06:46;;;;;;;;;;;;;;;11.97;63.27;97304.47;5085940;28;19935;-70
2023/11/14 12:09:35;;;;;;;;;;;;;;;12.05;62.57;97303.59;5075352;28;19920;-70
2023/11/14 12:12:23;;;;;;;;;;;;;;;12.14;62.67;97292.63;5094602;28;19919;-69
2023/11/14 12:15:15;;;;;;;;;;;;;;;12.18;61.89;97276.41;5089649;28;20246;-70
2023/11/14 12:18:06;;;;;;;;;;;;;;;12.30;61.72;97279.16;5093639;28;19943;-71
2023/11/14 12:20:53;;;;;;;;;;;;;;;12.45;61.77;97267.59;5087046;28;19973;-70
2023/11/14 12:23:42;;;;;;;;;;;;;;;12.44;60.96;97268.75;5063822;28;20007;-70
2023/11/14 12:26:30;;;;;;;;;;;;;;;12.55;60.95;97272.59;5068722;28;19973;-71
2023/11/14 12:29:19;;;;;;;;;;;;;;;12.72;60.47;97266.13;5070479;28;19921;-70
2023/11/14 12:32:12;;;;;;;;;;;;;;;12.74;60.67;97268.53;5064845;28;19921;-71
2023/11/14 12:35:01;;;;;;;;;;;;;;;12.80;59.91;97267.16;5064491;28;20092;-72
2023/11/14 12:37:50;;;;;;;;;;;;;;;12.71;60.37;97261.81;5060415;28;19921;-69
2023/11/14 12:40:38;;;;;;;;;;;;;;;12.64;59.86;97250.72;5066706;28;19928;-70
2023/11/14 12:43:26;;;;;;;;;;;;;;;12.49;60.04;97254.09;5066770;28;19924;-70
2023/11/14 12:46:20;;;;;;;;;;;;;;;12.45;59.26;97267.59;5070200;28;19920;-70
2023/11/14 12:49:12;;;;;;;;;;;;;;;12.57;59.72;97259.47;5068429;28;19920;-70
2023/11/14 12:52:05;;;;;;;;;;;;;;;12.47;59.57;97250.94;5054689;28;20266;-71
2023/11/14 12:54:53;;;;;;;;;;;;;;;12.49;60.71;97240.47;5072076;28;20003;-70
2023/11/14 12:57:42;;;;;;;;;;;;;;;12.57;59.24;97243.09;5061457;28;19955;-70
2023/11/14 13:00:30;;;;;;;;;;;;;;;12.51;59.13;97249.88;5065676;28;19970;-70
2023/11/14 13:03:18;;;;;;;;;;;;;;;12.62;59.27;97230.38;5069360;28;19931;-70
2023/11/14 13:06:06;;;;;;;;;;;;;;;12.69;58.97;97225.16;5053935;28;19940;-70
2023/11/14 13:08:58;;;;;;;;;;;;;;;12.66;59.03;97221.16;5073399;28;19920;-71
2023/11/14 13:11:46;;;;;;;;;;;;;;;12.55;58.75;97239.13;5063161;28;20487;-70
2023/11/14 13:14:35;;;;;;;;;;;;;;;12.44;59.87;97227.88;5064989;28;20278;-70
2023/11/14 13:17:26;;;;;;;;;;;;;;;12.42;58.31;97218.47;5062181;28;19928;-70
2023/11/14 13:20:14;;;;;;;;;;;;;;;12.51;58.90;97225.38;5068749;28;19940;-70
2023/11/14 13:23:03;;;;;;;;;;;;;;;12.61;58.65;97223.34;5080932;28;20446;-71
2023/11/14 13:25:52;;;;;;;;;;;;;;;12.40;58.74;97212.53;5080857;28;19920;-70
2023/11/14 13:28:40;;;;;;;;;;;;;;;12.35;59.21;97210.03;5084824;28;19920;-69
2023/11/14 13:31:28;;;;;;;;;;;;;;;12.40;59.06;97199.72;5087089;28;19936;-70
2023/11/14 13:34:16;;;;;;;;;;;;;;;12.50;59.34;97207.44;5085085;28;20353;-70
2023/11/14 13:37:05;;;;;;;;;;;;;;;12.32;59.19;97212.31;5087492;28;20450;-70
2023/11/14 13:39:54;;;;;;;;;;;;;;;12.45;59.15;97209.59;5090865;28;19956;-70
2023/11/14 13:42:53;;;;;;;;;;;;;;;12.48;59.47;97215.16;5079817;28;19924;-70
2023/11/14 13:45:45;;;;;;;;;;;;;;;12.49;59.16;97221.41;5081185;28;19959;-70
2023/11/14 13:48:34;;;;;;;;;;;;;;;12.42;59.36;97194.75;5085365;28;19923;-70
2023/11/14 13:51:22;;;;;;;;;;;;;;;12.32;58.88;97187.00;5088166;28;20020;-70
2023/11/14 13:54:16;;;;;;;;;;;;;;;12.31;59.10;97194.41;5079551;28;19958;-70
2023/11/14 13:57:05;;;;;;;;;;;;;;;12.36;58.83;97195.28;5077490;28;19963;-70
2023/11/14 13:59:55;;;;;;;;;;;;;;;12.37;59.33;97192.25;5082074;28;19924;-70
2023/11/14 14:02:44;;;;;;;;;;;;;;;12.45;59.02;97194.03;5081351;28;20346;-70
2023/11/14 14:05:32;;;;;;;;;;;;;;;12.49;59.86;97189.50;5082064;28;19935;-70
2023/11/14 14:08:21;;;;;;;;;;;;;;;12.51;59.69;97181.78;5076254;28;19939;-70
2023/11/14 14:11:11;;;;;;;;;;;;;;;12.55;59.02;97182.69;5083132;28;19920;-70
2023/11/14 14:14:00;;;;;;;;;;;;;;;12.64;58.77;97170.88;5083846;28;19985;-71
2023/11/14 14:16:50;;;;;;;;;;;;;;;12.66;58.76;97174.06;5078803;28;19924;-71
2023/11/14 14:19:38;;;;;;;;;;;;;;;12.42;59.54;97159.31;5070283;28;19921;-72
2023/11/14 14:22:28;;;;;;;;;;;;;;;12.53;59.03;97146.03;5082244;28;21740;-71
2023/11/14 14:25:17;;;;;;;;;;;;;;;12.47;58.10;97164.53;5082459;28;20261;-71
2023/11/14 14:28:08;;;;;;;;;;;;;;;12.57;59.05;97166.03;5075201;28;19978;-68
2023/11/14 14:30:57;;;;;;;;;;;;;;;12.61;59.04;97175.06;5074431;28;19926;-71
2023/11/14 14:33:47;;;;;;;;;;;;;;;12.61;59.90;97168.84;5081670;28;19961;-72
2023/11/14 14:36:35;;;;;;;;;;;;;;;12.67;60.35;97175.63;5086523;28;19927;-70
2023/11/14 14:39:23;;;;;;;;;;;;;;;12.55;59.25;97174.50;5073885;28;19928;-71
2023/11/14 14:42:11;;;;;;;;;;;;;;;12.57;59.36;97172.25;5080932;28;20273;-70